Khushab Weather



Khushab's Current Weather

Temprature 27.55o clear sky

clear sky

Rain: 0 %

Min Temprature27.55o
Max Temprature27.55o
Humidity54
Wind Speed3.13 m/h
Sun Rise05:39:42
Sun Set18:47:28
Current Time: 23-Aug-2019 06:04:44
Lat/Lon: 32.29, 72.35




Khushab's Geo Location



Khushab's Weather Forecast

Time Overall Temp Min Temp Max Temp Humidity Wind Speed Rain
23-Aug-2019 (Fri)
08:00:00 clear sky 30.220 30.217 30.220 47 2.19 m/h 0 %
11:00:00 clear sky 34.550 34.550 34.550 32 0.47 m/h 0 %
14:00:00 clear sky 36.530 36.530 36.531 27 1.94 m/h 0 %
17:00:00 few clouds 36.410 36.410 36.411 26 1.01 m/h 0 %
20:00:00 clear sky 33.250 33.250 33.250 32 1.73 m/h 0 %
23:00:00 clear sky 31.642 31.642 31.642 36 1.54 m/h 0 %
24-Aug-2019 (Sat)
02:00:00 clear sky 29.731 29.731 29.731 43 3.35 m/h 0 %
05:00:00 clear sky 28.755 28.755 28.755 44 2.61 m/h 0 %
08:00:00 clear sky 32.287 32.287 32.287 36 2.18 m/h 0 %
11:00:00 clear sky 36.169 36.169 36.169 28 2 m/h 0 %
14:00:00 clear sky 37.769 37.769 37.769 24 2.65 m/h 0 %
17:00:00 scattered clouds 37.523 37.523 37.523 24 1.81 m/h 0 %
20:00:00 clear sky 33.550 33.550 33.550 32 0.8 m/h 0 %
23:00:00 clear sky 32.469 32.469 32.469 32 2.12 m/h 0 %
25-Aug-2019 (Sun)
02:00:00 clear sky 29.831 29.831 29.831 42 3.18 m/h 0 %
05:00:00 clear sky 30.257 30.257 30.257 38 3.15 m/h 0 %
08:00:00 clear sky 32.314 32.314 32.314 38 2.23 m/h 0 %
11:00:00 clear sky 35.816 35.816 35.816 30 2.85 m/h 0 %
14:00:00 clear sky 37.850 37.850 37.850 24 3.08 m/h 0 %
17:00:00 clear sky 38.350 38.350 38.350 19 1.64 m/h 0 %
20:00:00 clear sky 34.181 34.181 34.181 26 0.66 m/h 0 %
23:00:00 clear sky 30.911 30.911 30.911 45 4.98 m/h 0 %
26-Aug-2019 (Mon)
02:00:00 clear sky 29.365 29.365 29.365 58 6.16 m/h 0 %
05:00:00 clear sky 27.350 27.350 27.350 67 4.85 m/h 0 %
08:00:00 clear sky 28.767 28.767 28.767 63 3.71 m/h 0 %
11:00:00 clear sky 33.372 33.372 33.372 43 4.2 m/h 0 %
14:00:00 broken clouds 36.084 36.084 36.084 34 3.98 m/h 0 %
17:00:00 scattered clouds 37.120 37.120 37.120 28 2.09 m/h 0 %
20:00:00 clear sky 33.572 33.572 33.572 37 2.06 m/h 0 %
23:00:00 clear sky 30.714 30.714 30.714 49 3.51 m/h 0 %
27-Aug-2019 (Tue)
02:00:00 scattered clouds 29.316 29.316 29.316 55 3.61 m/h 0 %
05:00:00 broken clouds 28.850 28.850 28.850 58 2.33 m/h 0 %
08:00:00 broken clouds 31.535 31.535 31.535 49 2.43 m/h 0 %
11:00:00 broken clouds 34.636 34.636 34.636 39 2.48 m/h 0 %
14:00:00 overcast clouds 35.736 35.736 35.736 34 1.18 m/h 0 %
17:00:00 overcast clouds 34.365 34.365 34.365 39 2.47 m/h 0 %
20:00:00 overcast clouds 33.350 33.350 33.350 40 2.08 m/h 0 %
23:00:00 overcast clouds 31.550 31.550 31.550 45 2.16 m/h 0 %
28-Aug-2019 (Wed)
02:00:00 clear sky 30.057 30.057 30.057 50 2.43 m/h 0 %
05:00:00 light rain 28.272 28.272 28.272 58 1.61 m/h 144 %

Famous Cities (61)